createdAt,value
2019-02-19T00:00:08.328Z,-3.65
2019-02-19T00:01:08.311Z,-3.51
2019-02-19T00:02:08.273Z,-3.51
2019-02-19T00:03:08.289Z,-3.47
2019-02-19T00:04:08.263Z,-3.54
2019-02-19T00:05:08.269Z,-3.64
2019-02-19T00:06:08.236Z,-3.81
2019-02-19T00:07:08.231Z,-3.90
2019-02-19T00:08:08.443Z,-4.01
2019-02-19T00:09:08.202Z,-4.07
2019-02-19T00:10:08.203Z,-4.07
2019-02-19T00:11:08.182Z,-4.11
2019-02-19T00:12:08.169Z,-4.15
2019-02-19T00:13:08.161Z,-4.22
2019-02-19T00:14:08.180Z,-4.14
2019-02-19T00:15:08.696Z,-4.02
2019-02-19T00:16:08.171Z,-4.01
2019-02-19T00:17:08.119Z,-3.99
2019-02-19T00:18:08.118Z,-3.94
2019-02-19T00:19:08.112Z,-3.89
2019-02-19T00:20:08.094Z,-3.72
2019-02-19T00:21:08.120Z,-3.65
2019-02-19T00:22:08.074Z,-3.57
2019-02-19T00:23:08.069Z,-3.44
2019-02-19T00:24:08.063Z,-3.28
2019-02-19T00:25:08.048Z,-3.33
2019-02-19T00:26:08.040Z,-3.28
2019-02-19T00:27:08.047Z,-3.28
2019-02-19T00:28:08.015Z,-3.29
2019-02-19T00:29:07.999Z,-3.39
2019-02-19T00:30:07.989Z,-3.54
2019-02-19T00:31:07.987Z,-3.54
2019-02-19T00:32:08.007Z,-3.72
2019-02-19T00:33:07.966Z,-3.84
2019-02-19T00:34:07.950Z,-3.86
2019-02-19T00:35:07.950Z,-4.02
2019-02-19T00:36:07.937Z,-4.04
2019-02-19T00:37:07.948Z,-3.98
2019-02-19T00:38:07.911Z,-4.18
2019-02-19T00:39:07.907Z,-4.02
2019-02-19T00:40:07.902Z,-4.05
2019-02-19T00:41:07.890Z,-3.96
2019-02-19T00:42:07.908Z,-3.81
2019-02-19T00:43:07.888Z,-3.72
2019-02-19T00:44:07.855Z,-3.61
2019-02-19T00:45:16.272Z,-3.53
2019-02-19T00:46:08.830Z,-3.65
2019-02-19T00:47:07.849Z,-3.62
2019-02-19T00:48:07.816Z,-3.61
2019-02-19T00:49:07.807Z,-3.68
2019-02-19T00:50:07.795Z,-3.65
2019-02-19T00:51:07.790Z,-3.81
2019-02-19T00:52:07.769Z,-3.89
2019-02-19T00:53:07.788Z,-3.98
2019-02-19T00:54:07.747Z,-4.05
2019-02-19T00:55:07.740Z,-4.14
2019-02-19T00:56:07.735Z,-4.12
2019-02-19T00:57:07.730Z,-4.01
2019-02-19T00:58:07.720Z,-3.99
2019-02-19T00:59:07.726Z,-4.02
2019-02-19T01:00:07.694Z,-4.18
2019-02-19T01:01:07.678Z,-4.18
2019-02-19T01:02:07.700Z,-4.18
2019-02-19T01:03:07.666Z,-4.15
2019-02-19T01:04:07.652Z,-4.19
2019-02-19T01:05:07.646Z,-4.05
2019-02-19T01:06:07.636Z,-4.02
2019-02-19T01:07:07.658Z,-3.99
2019-02-19T01:08:07.618Z,-4.05
2019-02-19T01:09:07.614Z,-4.12
2019-02-19T01:10:07.593Z,-4.20
2019-02-19T01:11:07.584Z,-4.19
2019-02-19T01:12:07.608Z,-4.41
2019-02-19T01:13:07.563Z,-4.41
2019-02-19T01:14:07.553Z,-4.44
2019-02-19T01:15:07.547Z,-4.43
2019-02-19T01:16:07.539Z,-4.59
2019-02-19T01:17:07.557Z,-4.77
2019-02-19T01:18:07.517Z,-4.69
2019-02-19T01:19:07.519Z,-4.64
2019-02-19T01:20:07.496Z,-4.38
2019-02-19T01:21:07.480Z,-4.18
2019-02-19T01:22:07.522Z,-4.07
2019-02-19T01:23:07.519Z,-3.94
2019-02-19T01:24:07.453Z,-3.96
2019-02-19T01:25:07.446Z,-4.01
2019-02-19T01:26:07.441Z,-3.96
2019-02-19T01:27:07.416Z,-3.96
2019-02-19T01:28:07.413Z,-4.02
2019-02-19T01:29:07.427Z,-4.12
2019-02-19T01:30:07.393Z,-4.07
2019-02-19T01:31:07.383Z,-4.09
2019-02-19T01:32:07.422Z,-4.05
2019-02-19T01:33:07.359Z,-4.02
2019-02-19T01:34:07.353Z,-4.15
2019-02-19T01:35:07.369Z,-4.12
2019-02-19T01:36:07.332Z,-4.15
2019-02-19T01:37:07.322Z,-4.22
2019-02-19T01:38:07.352Z,-4.20
2019-02-19T01:39:07.359Z,-4.15
2019-02-19T01:40:07.289Z,-4.19
2019-02-19T01:41:07.296Z,-4.15
2019-02-19T01:42:07.283Z,-4.19
2019-02-19T01:43:07.983Z,-4.25
2019-02-19T01:44:07.274Z,-4.20
2019-02-19T01:45:07.263Z,-4.25
2019-02-19T01:46:07.237Z,-4.28
2019-02-19T01:47:07.249Z,-4.29
2019-02-19T01:48:07.215Z,-4.29
2019-02-19T01:49:07.231Z,-4.38
2019-02-19T01:50:07.197Z,-4.46
2019-02-19T01:51:07.180Z,-4.54
2019-02-19T01:52:07.177Z,-4.54
2019-02-19T01:53:07.187Z,-4.61
2019-02-19T01:54:07.149Z,-4.75
2019-02-19T01:55:07.150Z,-4.83
2019-02-19T01:56:07.132Z,-4.79
2019-02-19T01:57:07.123Z,-4.79
2019-02-19T01:58:07.191Z,-4.77
2019-02-19T01:59:07.114Z,-4.76
2019-02-19T02:00:07.089Z,-4.73
2019-02-19T02:01:07.114Z,-4.61
2019-02-19T02:02:07.174Z,-4.61
2019-02-19T02:03:07.094Z,-4.38
2019-02-19T02:04:07.063Z,-4.47
2019-02-19T02:05:07.053Z,-4.50
2019-02-19T02:06:07.037Z,-4.50
2019-02-19T02:07:07.027Z,-4.37
2019-02-19T02:08:07.040Z,-4.32
2019-02-19T02:09:07.010Z,-4.37
2019-02-19T02:10:07.016Z,-4.58
2019-02-19T02:11:06.984Z,-4.65
2019-02-19T02:12:06.976Z,-4.69
2019-02-19T02:13:06.997Z,-4.71
2019-02-19T02:14:06.968Z,-4.69
2019-02-19T02:15:06.984Z,-4.65
2019-02-19T02:16:06.932Z,-4.75
2019-02-19T02:17:06.927Z,-4.59
2019-02-19T02:18:07.010Z,-4.65
2019-02-19T02:19:06.905Z,-4.61
2019-02-19T02:20:06.924Z,-4.58
2019-02-19T02:21:06.886Z,-4.54
2019-02-19T02:22:06.881Z,-4.57
2019-02-19T02:23:06.866Z,-4.58
2019-02-19T02:24:06.859Z,-4.59
2019-02-19T02:25:06.883Z,-4.65
2019-02-19T02:26:06.834Z,-4.61
2019-02-19T02:27:06.862Z,-4.65
2019-02-19T02:28:06.827Z,-4.64
2019-02-19T02:29:06.803Z,-4.65
2019-02-19T02:30:06.801Z,-4.66
2019-02-19T02:31:06.828Z,-4.73
2019-02-19T02:32:06.786Z,-4.64
2019-02-19T02:33:06.774Z,-4.65
2019-02-19T02:34:06.762Z,-4.61
2019-02-19T02:35:06.755Z,-4.61
2019-02-19T02:36:06.742Z,-4.59
2019-02-19T02:37:06.771Z,-4.68
2019-02-19T02:38:06.718Z,-4.68
2019-02-19T02:39:06.710Z,-4.64
2019-02-19T02:40:06.723Z,-4.62
2019-02-19T02:41:06.690Z,-4.58
2019-02-19T02:42:06.683Z,-4.55
2019-02-19T02:43:06.676Z,-4.55
2019-02-19T02:44:06.687Z,-4.58
2019-02-19T02:45:06.659Z,-4.55
2019-02-19T02:46:06.638Z,-4.48
2019-02-19T02:47:06.643Z,-4.28
2019-02-19T02:48:06.753Z,-4.25
2019-02-19T02:49:06.612Z,-4.08
2019-02-19T02:50:06.604Z,-4.12
2019-02-19T02:51:06.601Z,-4.12
2019-02-19T02:52:06.580Z,-4.38
2019-02-19T02:53:06.573Z,-4.40
2019-02-19T02:54:06.606Z,-4.51
2019-02-19T02:55:06.556Z,-4.62
2019-02-19T02:56:06.538Z,-4.71
2019-02-19T02:57:06.545Z,-4.73
2019-02-19T02:58:06.520Z,-4.86
2019-02-19T02:59:06.540Z,-4.66
2019-02-19T03:00:06.505Z,-4.61
2019-02-19T03:01:06.491Z,-4.54
2019-02-19T03:02:06.483Z,-4.46
2019-02-19T03:03:06.474Z,-4.38
2019-02-19T03:04:06.495Z,-4.23
2019-02-19T03:05:06.451Z,-4.29
2019-02-19T03:06:06.443Z,-4.25
2019-02-19T03:07:06.431Z,-4.20
2019-02-19T03:08:06.422Z,-4.20
2019-02-19T03:09:06.443Z,-4.28
2019-02-19T03:10:06.401Z,-4.28
2019-02-19T03:11:06.639Z,-4.38
2019-02-19T03:12:06.567Z,-4.50
2019-02-19T03:13:06.593Z,-4.61
2019-02-19T03:14:06.789Z,-4.57
2019-02-19T03:15:06.600Z,-4.61
2019-02-19T03:16:06.575Z,-4.61
2019-02-19T03:17:06.594Z,-4.75
2019-02-19T03:18:06.581Z,-4.65
2019-02-19T03:19:06.822Z,-4.76
2019-02-19T03:20:06.527Z,-4.66
2019-02-19T03:21:06.558Z,-4.58
2019-02-19T03:22:06.764Z,-4.59
2019-02-19T03:23:06.545Z,-4.58
2019-02-19T03:24:06.496Z,-4.59
2019-02-19T03:25:06.547Z,-4.57
2019-02-19T03:26:06.544Z,-4.61
2019-02-19T03:27:06.509Z,-4.68
2019-02-19T03:28:06.752Z,-4.80
2019-02-19T03:29:06.453Z,-4.79
2019-02-19T03:30:06.430Z,-4.85
2019-02-19T03:31:06.493Z,-5.08
2019-02-19T03:32:06.820Z,-5.11
2019-02-19T03:33:06.434Z,-5.14
2019-02-19T03:34:06.404Z,-5.16
2019-02-19T03:35:06.355Z,-5.20
2019-02-19T03:36:06.342Z,-5.30
2019-02-19T03:37:06.386Z,-5.16
2019-02-19T03:38:06.573Z,-5.04
2019-02-19T03:39:06.383Z,-4.97
2019-02-19T03:40:07.664Z,-4.77
2019-02-19T03:41:06.342Z,-4.77
2019-02-19T03:42:06.541Z,-4.82
2019-02-19T03:43:06.518Z,-4.73
2019-02-19T03:44:06.968Z,-4.82
2019-02-19T03:45:06.364Z,-4.82
2019-02-19T03:46:12.161Z,-4.86
2019-02-19T03:47:07.303Z,-4.89
2019-02-19T03:48:06.526Z,-5.01
2019-02-19T03:49:06.274Z,-5.00
2019-02-19T03:50:06.263Z,-5.08
2019-02-19T03:51:06.249Z,-5.05
2019-02-19T03:52:15.797Z,-5.14
2019-02-19T03:53:06.539Z,-4.89
2019-02-19T03:54:06.287Z,-4.79
2019-02-19T03:55:06.232Z,-4.82
2019-02-19T03:56:06.740Z,-4.89
2019-02-19T03:57:06.217Z,-4.94
2019-02-19T03:58:06.401Z,-4.93
2019-02-19T03:59:06.153Z,-4.95
2019-02-19T04:00:06.186Z,-4.83
2019-02-19T04:01:06.167Z,-4.82
2019-02-19T04:02:06.162Z,-4.80
2019-02-19T04:03:06.367Z,-4.76
2019-02-19T04:04:06.084Z,-4.83
2019-02-19T04:05:06.111Z,-4.76
2019-02-19T04:06:06.096Z,-4.80
2019-02-19T04:07:06.085Z,-4.77
2019-02-19T04:08:06.078Z,-4.86
2019-02-19T04:09:06.320Z,-4.75
2019-02-19T04:10:06.084Z,-4.77
2019-02-19T04:11:06.040Z,-4.86
2019-02-19T04:12:06.048Z,-4.95
2019-02-19T04:13:06.065Z,-5.08
2019-02-19T04:14:06.277Z,-5.17
2019-02-19T04:15:14.269Z,-5.22
2019-02-19T04:16:06.006Z,-5.17
2019-02-19T04:17:06.007Z,-5.27
2019-02-19T04:18:05.975Z,-5.34
2019-02-19T04:19:06.210Z,-5.20
2019-02-19T04:20:05.983Z,-5.26
2019-02-19T04:21:05.978Z,-5.22
2019-02-19T04:22:05.926Z,-5.26
2019-02-19T04:23:05.954Z,-5.08
2019-02-19T04:24:06.193Z,-4.98
2019-02-19T04:25:05.917Z,-5.03
2019-02-19T04:26:05.881Z,-5.04
2019-02-19T04:27:05.877Z,-5.05
2019-02-19T04:28:05.911Z,-5.14
2019-02-19T04:29:06.138Z,-5.12
2019-02-19T04:30:05.874Z,-5.14
2019-02-19T04:31:05.888Z,-5.20
2019-02-19T04:32:05.886Z,-5.20
2019-02-19T04:33:05.821Z,-5.35
2019-02-19T04:34:05.841Z,-5.37
2019-02-19T04:35:05.672Z,-5.49
2019-02-19T04:36:05.605Z,-5.52
2019-02-19T04:37:05.583Z,-5.58
2019-02-19T04:38:05.565Z,-5.74
2019-02-19T04:39:05.648Z,-5.73
2019-02-19T04:40:05.549Z,-5.69
2019-02-19T04:41:05.528Z,-5.73
2019-02-19T04:42:05.517Z,-5.59
2019-02-19T04:43:05.523Z,-5.54
2019-02-19T04:44:05.521Z,-5.33
2019-02-19T04:45:05.563Z,-5.34
2019-02-19T04:46:05.489Z,-5.38
2019-02-19T04:47:05.470Z,-5.34
2019-02-19T04:48:05.465Z,-5.26
2019-02-19T04:49:05.570Z,-5.23
2019-02-19T04:50:05.453Z,-5.34
2019-02-19T04:51:05.448Z,-5.23
2019-02-19T04:52:05.431Z,-5.23
2019-02-19T04:53:05.408Z,-5.26
2019-02-19T04:54:05.706Z,-5.25
2019-02-19T04:55:05.405Z,-5.30
2019-02-19T04:56:05.396Z,-5.44
2019-02-19T04:57:05.366Z,-5.49
2019-02-19T04:58:05.362Z,-5.35
2019-02-19T04:59:05.444Z,-5.43
2019-02-19T05:00:05.336Z,-5.33
2019-02-19T05:01:05.335Z,-5.43
2019-02-19T05:02:05.338Z,-5.51
2019-02-19T05:03:05.311Z,-5.58
2019-02-19T05:04:05.403Z,-5.69
2019-02-19T05:05:05.286Z,-5.73
2019-02-19T05:06:05.296Z,-5.83
2019-02-19T05:07:05.268Z,-5.90
2019-02-19T05:08:05.255Z,-6.06
2019-02-19T05:09:05.245Z,-6.01
2019-02-19T05:10:05.323Z,-6.01
2019-02-19T05:11:05.211Z,-5.97
2019-02-19T05:12:05.193Z,-6.02
2019-02-19T05:13:05.206Z,-6.02
2019-02-19T05:14:05.180Z,-6.02
2019-02-19T05:15:05.183Z,-5.82
2019-02-19T05:16:05.225Z,-5.76
2019-02-19T05:17:05.153Z,-5.62
2019-02-19T05:18:05.148Z,-5.63
2019-02-19T05:19:05.123Z,-5.47
2019-02-19T05:20:05.157Z,-5.40
2019-02-19T05:21:05.113Z,-5.14
2019-02-19T05:22:05.092Z,-5.17
2019-02-19T05:23:07.412Z,-5.14
2019-02-19T05:24:05.077Z,-5.17
2019-02-19T05:25:05.096Z,-5.14
2019-02-19T05:26:05.048Z,-5.04
2019-02-19T05:27:05.040Z,-5.03
2019-02-19T05:28:05.037Z,-5.01
2019-02-19T05:29:05.038Z,-5.08
2019-02-19T05:30:05.042Z,-5.07
2019-02-19T05:31:05.013Z,-5.03
2019-02-19T05:32:04.987Z,-5.12
2019-02-19T05:33:04.991Z,-5.00
2019-02-19T05:34:04.964Z,-5.27
2019-02-19T05:35:04.980Z,-5.25
2019-02-19T05:36:04.942Z,-5.19
2019-02-19T05:37:04.964Z,-5.19
2019-02-19T05:38:04.925Z,-5.04
2019-02-19T05:39:04.919Z,-5.01
2019-02-19T05:40:04.947Z,-4.94
2019-02-19T05:41:04.896Z,-4.87
2019-02-19T05:42:04.890Z,-4.83
2019-02-19T05:43:04.874Z,-4.79
2019-02-19T05:44:05.515Z,-4.66
2019-02-19T05:45:04.886Z,-4.61
2019-02-19T05:46:04.843Z,-4.57
2019-02-19T05:47:04.834Z,-4.48
2019-02-19T05:48:05.373Z,-4.55
2019-02-19T05:49:04.834Z,-4.65
2019-02-19T05:50:04.803Z,-4.59
2019-02-19T05:51:04.805Z,-4.61
2019-02-19T05:52:04.792Z,-4.61
2019-02-19T05:53:04.806Z,-4.73
2019-02-19T05:54:04.765Z,-4.75
2019-02-19T05:55:04.779Z,-4.95
2019-02-19T05:56:04.746Z,-4.93
2019-02-19T05:57:04.744Z,-4.89
2019-02-19T05:58:04.731Z,-4.71
2019-02-19T05:59:04.729Z,-4.66
2019-02-19T06:00:04.748Z,-4.58
2019-02-19T06:01:04.694Z,-4.50
2019-02-19T06:02:04.710Z,-4.41
2019-02-19T06:03:04.697Z,-4.40
2019-02-19T06:04:04.684Z,-4.37
2019-02-19T06:05:05.884Z,-4.30
2019-02-19T06:06:04.655Z,-4.28
2019-02-19T06:07:04.633Z,-4.32
2019-02-19T06:08:04.622Z,-4.33
2019-02-19T06:09:04.613Z,-4.32
2019-02-19T06:10:04.636Z,-4.36
2019-02-19T06:11:04.596Z,-4.43
2019-02-19T06:12:04.586Z,-4.44
2019-02-19T06:13:04.590Z,-4.46
2019-02-19T06:14:04.565Z,-4.61
2019-02-19T06:15:04.589Z,-4.65
2019-02-19T06:16:04.555Z,-4.80
2019-02-19T06:17:04.552Z,-4.86
2019-02-19T06:18:04.545Z,-4.91
2019-02-19T06:19:04.514Z,-5.03
2019-02-19T06:20:04.547Z,-5.05
2019-02-19T06:21:04.511Z,-5.04
2019-02-19T06:22:04.486Z,-4.98
2019-02-19T06:23:04.485Z,-4.91
2019-02-19T06:24:04.467Z,-4.83
2019-02-19T06:25:04.457Z,-4.80
2019-02-19T06:26:04.481Z,-4.79
2019-02-19T06:27:04.439Z,-4.77
2019-02-19T06:28:04.427Z,-4.66
2019-02-19T06:29:04.417Z,-4.57
2019-02-19T06:30:04.433Z,-4.44
2019-02-19T06:31:04.450Z,-4.51
2019-02-19T06:32:04.393Z,-4.46
2019-02-19T06:33:04.377Z,-4.43
2019-02-19T06:34:04.383Z,-4.37
2019-02-19T06:35:04.371Z,-4.37
2019-02-19T06:36:04.409Z,-4.19
2019-02-19T06:37:04.343Z,-4.20
2019-02-19T06:38:04.330Z,-4.23
2019-02-19T06:39:04.323Z,-4.28
2019-02-19T06:40:04.392Z,-4.30
2019-02-19T06:41:04.334Z,-4.29
2019-02-19T06:42:04.289Z,-4.38
2019-02-19T06:43:04.278Z,-4.43
2019-02-19T06:44:04.304Z,-4.38
2019-02-19T06:45:04.275Z,-4.47
2019-02-19T06:46:04.275Z,-4.46
2019-02-19T06:47:06.943Z,-4.37
2019-02-19T06:48:04.240Z,-4.48
2019-02-19T06:49:04.221Z,-4.43
2019-02-19T06:50:04.205Z,-4.38
2019-02-19T06:51:04.227Z,-4.40
2019-02-19T06:52:04.188Z,-4.37
2019-02-19T06:53:04.177Z,-4.28
2019-02-19T06:54:04.163Z,-4.28
2019-02-19T06:55:04.162Z,-4.33
2019-02-19T06:56:06.477Z,-4.26
2019-02-19T06:57:04.147Z,-4.29
2019-02-19T06:58:04.131Z,-4.25
2019-02-19T06:59:04.132Z,-4.20
2019-02-19T07:00:04.119Z,-4.22
2019-02-19T07:01:06.117Z,-4.18
2019-02-19T07:02:12.250Z,-4.07
2019-02-19T07:03:04.076Z,-4.02
2019-02-19T07:04:04.070Z,-3.86
2019-02-19T07:05:04.080Z,-3.71
2019-02-19T07:06:04.095Z,-3.51
2019-02-19T07:07:04.032Z,-3.23
2019-02-19T07:08:04.024Z,-3.13
2019-02-19T07:09:04.014Z,-2.92
2019-02-19T07:10:04.008Z,-2.74
2019-02-19T07:11:04.022Z,-2.58
2019-02-19T07:12:04.019Z,-2.56
2019-02-19T07:13:03.986Z,-2.36
2019-02-19T07:14:03.986Z,-2.14
2019-02-19T07:15:03.962Z,-2.14
2019-02-19T07:16:03.967Z,-1.98
2019-02-19T07:17:03.959Z,-1.92
2019-02-19T07:18:03.960Z,-1.85
2019-02-19T07:19:03.927Z,-1.81
2019-02-19T07:20:03.911Z,-1.57
2019-02-19T07:21:03.925Z,-1.43
2019-02-19T07:22:03.896Z,-1.38
2019-02-19T07:23:04.523Z,-1.24
2019-02-19T07:24:04.655Z,-1.09
2019-02-19T07:25:03.855Z,-0.89
2019-02-19T07:26:03.876Z,-0.69
2019-02-19T07:27:03.842Z,-0.47
2019-02-19T07:28:03.827Z,-0.37
2019-02-19T07:29:03.820Z,-0.19
2019-02-19T07:30:03.807Z,-0.13
2019-02-19T07:31:03.833Z,-0.05
2019-02-19T07:32:03.810Z,0.05
2019-02-19T07:33:03.785Z,0.27
2019-02-19T07:34:03.769Z,0.39
2019-02-19T07:35:03.771Z,0.53
2019-02-19T07:36:03.787Z,0.57
2019-02-19T07:37:03.742Z,0.65
2019-02-19T07:38:03.730Z,0.67
2019-02-19T07:39:03.716Z,0.71
2019-02-19T07:40:03.719Z,0.60
2019-02-19T07:41:03.730Z,0.51
2019-02-19T07:42:03.694Z,0.49
2019-02-19T07:43:03.684Z,0.71
2019-02-19T07:44:03.671Z,0.67
2019-02-19T07:45:03.657Z,0.76
2019-02-19T07:46:03.667Z,0.86
2019-02-19T07:47:03.666Z,1.24
2019-02-19T07:48:03.656Z,1.40
2019-02-19T07:49:03.652Z,1.60
2019-02-19T07:50:03.610Z,1.64
2019-02-19T07:51:03.613Z,1.80
2019-02-19T07:52:03.634Z,2.16
2019-02-19T07:53:03.574Z,2.23
2019-02-19T07:54:03.599Z,2.41
2019-02-19T07:55:03.563Z,2.56
2019-02-19T07:56:03.556Z,2.59
2019-02-19T07:57:03.531Z,2.70
2019-02-19T07:58:03.523Z,2.89
2019-02-19T07:59:03.525Z,2.92
2019-02-19T08:00:03.547Z,3.09
2019-02-19T08:01:03.503Z,2.87
2019-02-19T08:02:03.482Z,2.91
2019-02-19T08:03:04.997Z,3.03
2019-02-19T08:04:03.465Z,3.20
2019-02-19T08:05:03.457Z,3.27
2019-02-19T08:06:03.526Z,3.53
2019-02-19T08:07:03.466Z,3.72
2019-02-19T08:08:03.424Z,3.82
2019-02-19T08:09:03.406Z,3.78
2019-02-19T08:10:03.407Z,3.94
2019-02-19T08:11:03.387Z,4.06
2019-02-19T08:12:03.418Z,4.08
2019-02-19T08:13:03.367Z,4.07
2019-02-19T08:14:03.391Z,3.94
2019-02-19T08:15:03.352Z,3.97
2019-02-19T08:16:03.337Z,4.01
2019-02-19T08:17:03.333Z,4.16
2019-02-19T08:18:03.312Z,4.36
2019-02-19T08:19:03.335Z,4.50
2019-02-19T08:20:03.302Z,4.61
2019-02-19T08:21:03.329Z,4.65
2019-02-19T08:22:03.283Z,4.62
2019-02-19T08:23:03.264Z,4.62
2019-02-19T08:24:03.271Z,4.57
2019-02-19T08:25:03.251Z,4.80
2019-02-19T08:26:03.241Z,4.92
2019-02-19T08:27:03.268Z,5.09
2019-02-19T08:28:03.215Z,5.31
2019-02-19T08:29:13.226Z,5.46
2019-02-19T08:30:04.201Z,5.56
2019-02-19T08:31:03.187Z,5.68
2019-02-19T08:32:03.201Z,5.77
2019-02-19T08:33:03.162Z,5.81
2019-02-19T08:34:03.154Z,5.92
2019-02-19T08:35:03.147Z,6.13
2019-02-19T08:36:03.133Z,6.46
2019-02-19T08:37:03.148Z,6.61
2019-02-19T08:38:03.114Z,6.71
2019-02-19T08:39:03.100Z,6.89
2019-02-19T08:40:03.094Z,7.04
2019-02-19T08:41:03.089Z,7.31
2019-02-19T08:42:03.106Z,7.35
2019-02-19T08:43:03.068Z,7.67
2019-02-19T08:44:03.085Z,7.79
2019-02-19T08:45:03.088Z,7.89
2019-02-19T08:46:03.027Z,7.87
2019-02-19T08:47:03.026Z,7.99
2019-02-19T08:48:03.010Z,8.22
2019-02-19T08:49:02.991Z,8.28
2019-02-19T08:50:02.983Z,8.68
2019-02-19T08:51:03.006Z,8.79
2019-02-19T08:52:02.971Z,8.75
2019-02-19T08:53:02.951Z,8.69
2019-02-19T08:54:02.949Z,8.55
2019-02-19T08:55:02.970Z,8.20
2019-02-19T08:56:02.961Z,8.15
2019-02-19T08:57:02.947Z,8.28
2019-02-19T08:58:02.898Z,8.57
2019-02-19T08:59:02.898Z,8.86
2019-02-19T09:00:02.887Z,9.25
2019-02-19T09:01:02.884Z,9.64
2019-02-19T09:02:02.901Z,9.96
2019-02-19T09:03:02.858Z,10.09
2019-02-19T09:04:02.862Z,10.21
2019-02-19T09:05:02.832Z,10.34
2019-02-19T09:06:03.027Z,10.52
2019-02-19T09:07:02.804Z,10.56
2019-02-19T09:08:02.806Z,10.63
2019-02-19T09:09:02.800Z,10.59
2019-02-19T09:10:02.812Z,10.43
2019-02-19T09:11:02.772Z,10.34
2019-02-19T09:12:02.783Z,10.43
2019-02-19T09:13:02.743Z,10.63
2019-02-19T09:14:02.773Z,10.88
2019-02-19T09:15:02.729Z,10.98
2019-02-19T09:16:02.712Z,11.03
2019-02-19T09:17:02.722Z,11.21
2019-02-19T09:18:02.724Z,11.44
2019-02-19T09:19:02.681Z,11.71
2019-02-19T09:20:02.664Z,11.77
2019-02-19T09:21:02.670Z,11.83
2019-02-19T09:22:02.648Z,11.59
2019-02-19T09:23:02.664Z,11.10
2019-02-19T09:24:09.173Z,10.59
2019-02-19T09:25:03.611Z,10.25
2019-02-19T09:26:02.612Z,10.22
2019-02-19T09:27:02.595Z,10.30
2019-02-19T09:28:02.618Z,10.42
2019-02-19T09:29:02.574Z,10.53
2019-02-19T09:30:02.572Z,10.44
2019-02-19T09:31:02.549Z,10.55
2019-02-19T09:32:02.546Z,10.56
2019-02-19T09:33:02.567Z,10.70
2019-02-19T09:34:02.523Z,10.66
2019-02-19T09:35:02.509Z,10.86
2019-02-19T09:36:02.503Z,10.94
2019-02-19T09:37:02.484Z,10.91
2019-02-19T09:38:02.529Z,10.84
2019-02-19T09:39:02.477Z,10.86
2019-02-19T09:40:02.464Z,11.02
2019-02-19T09:41:02.443Z,11.06
2019-02-19T09:42:02.440Z,10.99
2019-02-19T09:43:02.453Z,11.19
2019-02-19T09:44:02.447Z,11.21
2019-02-19T09:45:02.406Z,11.20
2019-02-19T09:46:02.399Z,11.34
2019-02-19T09:47:02.393Z,11.71
2019-02-19T09:48:02.460Z,11.83
2019-02-19T09:49:02.361Z,11.74
2019-02-19T09:50:02.375Z,12.02
2019-02-19T09:51:02.341Z,11.80
2019-02-19T09:52:02.331Z,11.35
2019-02-19T09:53:02.343Z,11.32
2019-02-19T09:54:02.423Z,11.11
2019-02-19T09:55:02.295Z,11.29
2019-02-19T09:56:02.295Z,11.78
2019-02-19T09:57:02.284Z,12.38
2019-02-19T09:58:02.304Z,12.96
2019-02-19T09:59:02.255Z,13.36
2019-02-19T10:00:02.248Z,12.92
2019-02-19T10:01:02.242Z,12.71
2019-02-19T10:02:02.244Z,12.77
2019-02-19T10:03:02.258Z,12.27
2019-02-19T10:04:02.250Z,11.90
2019-02-19T10:05:02.200Z,11.27
2019-02-19T10:06:02.214Z,10.92
2019-02-19T10:07:02.184Z,10.65
2019-02-19T10:08:02.794Z,10.43
2019-02-19T10:09:02.200Z,10.43
2019-02-19T10:10:02.199Z,10.68
2019-02-19T10:11:02.129Z,10.99
2019-02-19T10:12:02.136Z,11.19
2019-02-19T10:13:02.142Z,11.34
2019-02-19T10:14:02.108Z,11.47
2019-02-19T10:15:02.105Z,11.59
2019-02-19T10:16:02.078Z,11.89
2019-02-19T10:17:02.064Z,12.19
2019-02-19T10:18:10.044Z,12.41
2019-02-19T10:19:03.045Z,12.51
2019-02-19T10:20:02.038Z,12.69
2019-02-19T10:21:02.024Z,12.79
2019-02-19T10:22:02.016Z,12.85
2019-02-19T10:23:02.022Z,12.78
2019-02-19T10:24:01.993Z,12.31
2019-02-19T10:25:01.992Z,12.41
2019-02-19T10:26:01.973Z,12.51
2019-02-19T10:27:02.065Z,12.82
2019-02-19T10:28:01.982Z,13.43
2019-02-19T10:29:01.935Z,13.95
2019-02-19T10:30:01.957Z,14.02
2019-02-19T10:31:01.924Z,14.27
2019-02-19T10:32:01.907Z,14.47
2019-02-19T10:33:01.892Z,14.64
2019-02-19T10:34:01.891Z,14.65
2019-02-19T10:35:01.875Z,14.54
2019-02-19T10:36:01.916Z,14.75
2019-02-19T10:37:01.860Z,14.83
2019-02-19T10:38:01.844Z,14.50
2019-02-19T10:39:01.828Z,14.50
2019-02-19T10:40:01.855Z,14.47
2019-02-19T10:41:01.811Z,14.60
2019-02-19T10:42:01.798Z,14.52
2019-02-19T10:43:01.814Z,14.54
2019-02-19T10:44:01.779Z,14.71
2019-02-19T10:45:01.767Z,14.90
2019-02-19T10:46:01.757Z,15.19
2019-02-19T10:47:01.741Z,14.54
2019-02-19T10:48:01.731Z,14.27
2019-02-19T10:49:01.762Z,14.28
2019-02-19T10:50:01.707Z,14.38
2019-02-19T10:51:01.930Z,14.52
2019-02-19T10:52:01.690Z,14.53
2019-02-19T10:53:01.684Z,14.57
2019-02-19T10:54:01.678Z,13.91
2019-02-19T10:55:01.673Z,13.87
2019-02-19T10:56:01.665Z,13.74
2019-02-19T10:57:01.671Z,13.56
2019-02-19T10:58:01.625Z,13.74
2019-02-19T10:59:01.617Z,14.07
2019-02-19T11:00:01.621Z,14.25
2019-02-19T11:01:01.601Z,14.19
2019-02-19T11:02:01.622Z,14.07
2019-02-19T11:03:01.569Z,13.80
2019-02-19T11:04:01.565Z,13.67
2019-02-19T11:05:01.554Z,13.65
2019-02-19T11:06:01.698Z,13.84
2019-02-19T11:07:01.536Z,13.89
2019-02-19T11:08:01.518Z,14.06
2019-02-19T11:09:01.507Z,14.27
2019-02-19T11:10:01.503Z,14.38
2019-02-19T11:11:01.491Z,14.67
2019-02-19T11:12:02.281Z,14.84
2019-02-19T11:13:01.509Z,14.95
2019-02-19T11:14:01.453Z,14.71
2019-02-19T11:15:01.446Z,14.47
2019-02-19T11:16:03.317Z,14.43
2019-02-19T11:17:01.433Z,14.50
2019-02-19T11:18:01.410Z,14.44
2019-02-19T11:19:02.907Z,14.47
2019-02-19T11:20:01.404Z,14.49
2019-02-19T11:21:01.921Z,14.53
2019-02-19T11:22:01.373Z,14.72
2019-02-19T11:23:01.365Z,14.94
2019-02-19T11:24:01.376Z,15.20
2019-02-19T11:25:01.337Z,15.61
2019-02-19T11:26:01.326Z,15.94
2019-02-19T11:27:01.316Z,16.12
2019-02-19T11:28:01.304Z,16.31
2019-02-19T11:29:02.127Z,16.38
2019-02-19T11:30:01.285Z,16.50
2019-02-19T11:31:01.268Z,16.31
2019-02-19T11:32:01.263Z,15.94
2019-02-19T11:33:01.257Z,15.31
2019-02-19T11:34:01.274Z,15.05
2019-02-19T11:35:01.240Z,15.06
2019-02-19T11:36:01.230Z,15.08
2019-02-19T11:37:01.204Z,15.68
2019-02-19T11:38:01.204Z,16.16
2019-02-19T11:39:01.222Z,16.67
2019-02-19T11:40:01.181Z,16.90
2019-02-19T11:41:01.177Z,16.86
2019-02-19T11:42:01.163Z,16.48
2019-02-19T11:43:01.147Z,16.83
2019-02-19T11:44:01.319Z,17.00
2019-02-19T11:45:01.121Z,17.23
2019-02-19T11:46:01.111Z,17.71
2019-02-19T11:47:01.111Z,17.33
2019-02-19T11:48:01.090Z,16.74
2019-02-19T11:49:01.114Z,16.49
2019-02-19T11:50:01.078Z,16.63
2019-02-19T11:51:01.063Z,16.99
2019-02-19T11:52:01.053Z,17.63
2019-02-19T11:53:01.035Z,17.94
2019-02-19T11:54:01.070Z,18.62
2019-02-19T11:55:01.097Z,19.61
2019-02-19T11:56:01.006Z,20.35
2019-02-19T11:57:01.003Z,21.09
2019-02-19T11:58:00.998Z,21.83
2019-02-19T11:59:00.975Z,22.35
2019-02-19T12:00:00.970Z,22.72
2019-02-19T12:01:00.986Z,22.77
2019-02-19T12:02:00.984Z,21.98
2019-02-19T12:03:00.931Z,21.60
2019-02-19T12:04:00.923Z,21.41
2019-02-19T12:05:00.908Z,21.13
2019-02-19T12:06:02.680Z,20.12
2019-02-19T12:07:00.885Z,19.70
2019-02-19T12:08:00.882Z,19.06
2019-02-19T12:09:03.042Z,18.62
2019-02-19T12:10:00.861Z,18.19
2019-02-19T12:11:00.847Z,18.52
2019-02-19T12:12:00.830Z,18.39
2019-02-19T12:13:00.832Z,19.05
2019-02-19T12:14:00.815Z,18.92
2019-02-19T12:15:00.832Z,18.65
2019-02-19T12:16:00.800Z,18.84
2019-02-19T12:17:00.788Z,18.54
2019-02-19T12:18:00.773Z,18.39
2019-02-19T12:19:00.794Z,18.13
2019-02-19T12:20:00.747Z,17.88
2019-02-19T12:21:00.746Z,18.21
2019-02-19T12:22:00.771Z,18.67
2019-02-19T12:23:02.713Z,18.52
2019-02-19T12:24:00.720Z,18.39
2019-02-19T12:25:00.700Z,18.09
2019-02-19T12:26:00.688Z,18.10
2019-02-19T12:27:00.676Z,18.28
2019-02-19T12:28:00.664Z,18.39
2019-02-19T12:29:00.695Z,19.08
2019-02-19T12:30:00.675Z,19.08
2019-02-19T12:31:00.631Z,18.42
2019-02-19T12:32:00.621Z,18.18
2019-02-19T12:33:00.613Z,18.07
2019-02-19T12:34:00.612Z,18.59
2019-02-19T12:35:00.594Z,19.39
2019-02-19T12:36:04.489Z,19.51
2019-02-19T12:37:00.574Z,19.42
2019-02-19T12:38:00.555Z,19.87
2019-02-19T12:39:00.593Z,20.41
2019-02-19T12:40:02.413Z,20.72
2019-02-19T12:41:00.526Z,21.20
2019-02-19T12:42:00.519Z,20.90
2019-02-19T12:43:00.503Z,20.24
2019-02-19T12:44:00.503Z,19.88
2019-02-19T12:45:02.514Z,19.21
2019-02-19T12:46:00.476Z,18.80
2019-02-19T12:47:00.476Z,18.44
2019-02-19T12:48:00.451Z,18.44
2019-02-19T12:49:00.444Z,19.10
2019-02-19T12:50:03.253Z,19.63
2019-02-19T12:51:00.425Z,19.70
2019-02-19T12:52:00.411Z,20.30
2019-02-19T12:53:00.398Z,20.23
2019-02-19T12:54:00.399Z,20.33
2019-02-19T12:55:01.263Z,20.06